Time;durP1;ratioP1;P1;durP2;ratioP2;P2;SDS_P1;SDS_P2;PMS_P1;PMS_P2;Temp;Humidity;BMP_temperature;BMP_pressure;BME280_temperature;BME280_humidity;BME280_pressure;Samples;Min_cycle;Max_cycle;Signal;HPM_P1;HPM_P2
2021/01/16 00:01:36;;;;;;;;;;;;;;;-4.75;63.18;100466.97;122442;1103;104603;-69
2021/01/16 00:04:02;;;;;;;;;;;;;;;-4.76;63.34;100467.85;122409;1107;104602;-69
2021/01/16 00:06:30;;;;;;;;;;;;;;;-4.78;62.97;100469.66;122508;1103;105118;-69
2021/01/16 00:08:56;;;;;;;;;;;;;;;-4.75;63.11;100466.12;122447;1107;104598;-70
2021/01/16 00:11:22;;;;;;;;;;;;;;;-4.74;63.27;100468.65;122417;1103;104717;-69
2021/01/16 00:13:47;;;;;;;;;;;;;;;-4.68;63.58;100469.36;122520;1103;104651;-68
2021/01/16 00:16:13;;;;;;;;;;;;;;;-4.66;63.65;100462.34;122431;1103;105206;-69
2021/01/16 00:18:38;;;;;;;;;;;;;;;-4.63;63.24;100468.31;122521;1103;104606;-69
2021/01/16 00:21:04;;;;;;;;;;;;;;;-4.57;62.99;100459.44;122432;1108;106638;-71
2021/01/16 00:23:30;;;;;;;;;;;;;;;-4.55;63.24;100461.08;122427;1103;104609;-71
2021/01/16 00:25:56;;;;;;;;;;;;;;;-4.50;63.32;100460.06;122497;1104;105147;-69
2021/01/16 00:28:22;;;;;;;;;;;;;;;-4.42;63.33;100453.70;122436;1103;104695;-70
2021/01/16 00:30:49;;;;;;;;;;;;;;;-4.34;63.28;100451.67;122437;1104;104603;-69
2021/01/16 00:33:24;;;;;;;;;;;;;;;-4.27;63.44;100454.93;122504;1103;104584;-69
2021/01/16 00:35:51;;;;;;;;;;;;;;;-4.17;63.09;100447.64;122395;1109;106590;-69
2021/01/16 00:38:17;;;;;;;;;;;;;;;-4.10;63.39;100450.86;122472;1103;104695;-71
2021/01/16 00:40:43;;;;;;;;;;;;;;;-4.02;63.36;100454.03;122501;1104;105050;-71
2021/01/16 00:43:11;;;;;;;;;;;;;;;-3.95;63.39;100451.14;122433;1103;104605;-71
2021/01/16 00:45:38;;;;;;;;;;;;;;;-3.92;63.37;100457.19;122464;1103;109264;-71
2021/01/16 00:48:11;;;;;;;;;;;;;;;-3.90;63.48;100456.20;122428;1107;104715;-68
2021/01/16 00:50:37;;;;;;;;;;;;;;;-3.88;63.10;100462.22;122584;1103;104699;-69
2021/01/16 00:53:02;;;;;;;;;;;;;;;-3.90;63.24;100455.37;122440;1103;104644;-68
2021/01/16 00:55:32;;;;;;;;;;;;;;;-3.93;63.04;100458.08;122436;1110;104986;-67
2021/01/16 00:57:58;;;;;;;;;;;;;;;-3.99;63.46;100464.36;122453;1107;104612;-68
2021/01/16 01:00:27;;;;;;;;;;;;;;;-4.03;63.22;100453.19;122555;1103;104644;-68
2021/01/16 01:02:54;;;;;;;;;;;;;;;-4.06;63.57;100450.72;122451;1103;104599;-69
2021/01/16 01:05:20;;;;;;;;;;;;;;;-4.10;63.67;100441.28;122521;1106;104677;-68
2021/01/16 01:07:47;;;;;;;;;;;;;;;-4.10;63.55;100449.09;122413;1103;109407;-70
2021/01/16 01:10:13;;;;;;;;;;;;;;;-4.10;63.55;100446.48;122426;1107;104615;-69
2021/01/16 01:12:39;;;;;;;;;;;;;;;-4.08;63.81;100449.92;122532;1106;104542;-69
2021/01/16 01:15:06;;;;;;;;;;;;;;;-4.04;63.70;100450.63;122433;1107;104610;-69
2021/01/16 01:17:31;;;;;;;;;;;;;;;-4.04;63.77;100443.69;122413;1103;104667;-69
2021/01/16 01:19:57;;;;;;;;;;;;;;;-4.00;63.77;100445.27;122520;1107;104592;-69
2021/01/16 01:22:22;;;;;;;;;;;;;;;-4.01;63.66;100440.95;122462;1107;104648;-70
2021/01/16 01:24:48;;;;;;;;;;;;;;;-4.01;63.53;100434.89;122507;1107;104621;-69
2021/01/16 01:27:13;;;;;;;;;;;;;;;-3.99;64.02;100433.92;122409;1107;106565;-70
2021/01/16 01:29:39;;;;;;;;;;;;;;;-3.97;64.08;100437.32;122450;1103;104612;-69
2021/01/16 01:32:04;;;;;;;;;;;;;;;-3.98;64.13;100430.42;122538;1103;104618;-70
2021/01/16 01:34:30;;;;;;;;;;;;;;;-3.95;63.54;100435.51;122422;1103;104644;-70
2021/01/16 01:36:55;;;;;;;;;;;;;;;-3.95;63.82;100429.45;122502;1103;104650;-70
2021/01/16 01:39:21;;;;;;;;;;;;;;;-3.93;63.86;100430.24;122415;1107;105164;-69
2021/01/16 01:41:46;;;;;;;;;;;;;;;-3.90;63.06;100418.88;122503;1106;104603;-69
2021/01/16 01:44:12;;;;;;;;;;;;;;;-3.90;63.54;100426.70;122452;1103;106133;-70
2021/01/16 01:46:38;;;;;;;;;;;;;;;-3.95;63.94;100430.30;122465;1107;104599;-69
2021/01/16 01:49:04;;;;;;;;;;;;;;;-3.90;63.87;100437.13;122561;1107;104683;-69
2021/01/16 01:51:31;;;;;;;;;;;;;;;-3.89;63.72;100433.59;122445;1111;104695;-70
2021/01/16 01:53:57;;;;;;;;;;;;;;;-3.82;63.86;100427.25;122412;1103;104650;-69
2021/01/16 01:56:25;;;;;;;;;;;;;;;-3.80;63.52;100418.45;122444;1103;104634;-69
2021/01/16 01:58:51;;;;;;;;;;;;;;;-3.77;63.59;100422.72;122513;1103;105031;-70
2021/01/16 02:01:20;;;;;;;;;;;;;;;-3.82;64.02;100416.82;122463;1103;104721;-69
2021/01/16 02:03:49;;;;;;;;;;;;;;;-3.83;63.51;100410.77;122434;1103;105086;-69
2021/01/16 02:06:18;;;;;;;;;;;;;;;-3.83;64.09;100408.16;122402;1103;109278;-69
2021/01/16 02:08:44;;;;;;;;;;;;;;;-3.80;63.92;100417.61;122412;1107;106522;-72
2021/01/16 02:11:10;;;;;;;;;;;;;;;-3.79;64.10;100416.69;122432;1103;105663;-70
2021/01/16 02:13:36;;;;;;;;;;;;;;;-3.71;63.81;100413.78;122712;1101;104644;-69
2021/01/16 02:16:09;;;;;;;;;;;;;;;-3.62;63.63;100410.83;122463;1101;104698;-68
2021/01/16 02:18:40;;;;;;;;;;;;;;;-3.63;63.24;100402.17;122424;1104;109249;-70
2021/01/16 02:21:07;;;;;;;;;;;;;;;-3.61;63.82;100396.91;122595;1103;106609;-72
2021/01/16 02:23:52;;;;;;;;;;;;;;;-3.60;63.66;100395.97;122596;1103;104660;-71
2021/01/16 02:26:18;;;;;;;;;;;;;;;-3.63;63.80;100394.34;122547;1103;104615;-71
2021/01/16 02:28:56;;;;;;;;;;;;;;;-3.65;63.64;100390.95;122536;1107;104678;-71
2021/01/16 02:31:23;;;;;;;;;;;;;;;-3.64;63.78;100403.06;122544;1104;105607;-71
2021/01/16 02:33:49;;;;;;;;;;;;;;;-3.64;64.09;100402.22;122561;1103;104599;-71
2021/01/16 02:36:33;;;;;;;;;;;;;;;-3.65;63.70;100401.38;122588;1103;104612;-71
2021/01/16 02:39:22;;;;;;;;;;;;;;;-3.57;64.50;100407.14;122591;1111;108399;-72
2021/01/16 02:42:06;;;;;;;;;;;;;;;-3.49;64.14;100406.00;122469;1103;105771;-71
2021/01/16 02:44:38;;;;;;;;;;;;;;;-3.39;64.12;100399.50;122575;1103;104666;-71
2021/01/16 02:47:20;;;;;;;;;;;;;;;-3.29;64.46;100395.64;122549;1111;104583;-71
2021/01/16 02:49:52;;;;;;;;;;;;;;;-3.21;64.24;100401.39;122554;1103;108328;-72
2021/01/16 02:52:20;;;;;;;;;;;;;;;-3.18;64.10;100393.41;122546;1103;105738;-71
2021/01/16 02:54:46;;;;;;;;;;;;;;;-3.14;63.15;100393.30;122575;1103;104928;-72
2021/01/16 02:57:11;;;;;;;;;;;;;;;-3.13;64.14;100397.63;122559;1103;104612;-71
2021/01/16 02:59:38;;;;;;;;;;;;;;;-3.08;63.68;100395.66;122633;1107;104616;-72
2021/01/16 03:02:04;;;;;;;;;;;;;;;-3.06;63.64;100393.83;122502;1103;104640;-70
2021/01/16 03:04:31;;;;;;;;;;;;;;;-3.04;63.58;100389.39;122544;1103;104613;-70
2021/01/16 03:06:56;;;;;;;;;;;;;;;-3.00;63.55;100389.22;122637;1103;104574;-71
2021/01/16 03:09:23;;;;;;;;;;;;;;;-3.00;63.68;100394.44;122591;1107;104684;-72
2021/01/16 03:11:48;;;;;;;;;;;;;;;-2.98;63.40;100391.77;122537;1107;104600;-73
2021/01/16 03:14:14;;;;;;;;;;;;;;;-2.95;64.39;100378.58;122665;1103;104603;-73
2021/01/16 03:16:45;;;;;;;;;;;;;;;-2.96;63.32;100384.73;122542;1103;108405;-71
2021/01/16 03:19:15;;;;;;;;;;;;;;;-2.94;63.78;100385.51;122573;1103;105635;-72
2021/01/16 03:21:41;;;;;;;;;;;;;;;-2.94;64.44;100382.02;122602;1104;104599;-70
2021/01/16 03:24:07;;;;;;;;;;;;;;;-2.96;64.52;100385.56;122457;1103;105147;-70
2021/01/16 03:26:32;;;;;;;;;;;;;;;-2.96;64.55;100382.95;122527;1107;104609;-69
2021/01/16 03:28:57;;;;;;;;;;;;;;;-2.97;64.07;100393.45;122428;1103;104597;-72
2021/01/16 03:31:23;;;;;;;;;;;;;;;-2.99;64.17;100390.91;122491;1103;104632;-72
2021/01/16 03:33:49;;;;;;;;;;;;;;;-2.98;64.15;100386.55;122412;1103;104718;-71
2021/01/16 03:36:14;;;;;;;;;;;;;;;-2.95;64.42;100396.84;122485;1107;104686;-72
2021/01/16 03:38:39;;;;;;;;;;;;;;;-2.94;64.61;100406.39;122541;1110;104743;-71
2021/01/16 03:41:05;;;;;;;;;;;;;;;-2.96;64.36;100403.00;122403;1103;104583;-69
2021/01/16 03:43:30;;;;;;;;;;;;;;;-3.00;64.19;100404.05;122517;1106;104641;-69
2021/01/16 03:45:56;;;;;;;;;;;;;;;-2.99;64.39;100397.89;122435;1103;104712;-69
2021/01/16 03:48:21;;;;;;;;;;;;;;;-3.05;63.36;100391.16;122528;1103;104684;-70
2021/01/16 03:50:47;;;;;;;;;;;;;;;-3.06;64.37;100386.88;122430;1104;104577;-69
2021/01/16 03:53:12;;;;;;;;;;;;;;;-3.07;63.95;100394.76;122447;1106;104693;-69
2021/01/16 03:55:38;;;;;;;;;;;;;;;-3.14;64.55;100391.53;122533;1103;104603;-68
2021/01/16 03:58:03;;;;;;;;;;;;;;;-3.18;63.50;100390.80;122408;1103;104609;-68
2021/01/16 04:00:29;;;;;;;;;;;;;;;-3.24;63.80;100396.28;122504;1103;105084;-69
2021/01/16 04:02:54;;;;;;;;;;;;;;;-3.31;63.71;100401.80;122496;1106;104615;-69
2021/01/16 04:05:20;;;;;;;;;;;;;;;-3.37;64.77;100405.50;122600;1106;104983;-69
2021/01/16 04:07:49;;;;;;;;;;;;;;;-3.44;64.79;100406.68;122406;1103;106742;-69
2021/01/16 04:10:15;;;;;;;;;;;;;;;-3.45;65.04;100402.36;122438;1110;104719;-68
2021/01/16 04:12:41;;;;;;;;;;;;;;;-3.48;64.32;100411.16;122441;1103;104692;-69
2021/01/16 04:15:06;;;;;;;;;;;;;;;-3.45;64.47;100397.98;122523;1107;104615;-69
2021/01/16 04:17:32;;;;;;;;;;;;;;;-3.44;64.63;100398.86;122423;1103;104599;-69
2021/01/16 04:19:57;;;;;;;;;;;;;;;-3.44;64.26;100393.64;122507;1106;104608;-70
2021/01/16 04:22:23;;;;;;;;;;;;;;;-3.43;64.69;100390.10;122496;1103;106647;-69
2021/01/16 04:24:48;;;;;;;;;;;;;;;-3.41;65.08;100390.89;122442;1103;104935;-69
2021/01/16 04:27:14;;;;;;;;;;;;;;;-3.45;64.57;100386.70;122516;1107;104593;-70
2021/01/16 04:29:39;;;;;;;;;;;;;;;-3.45;64.41;100386.70;122450;1103;104650;-70
2021/01/16 04:32:05;;;;;;;;;;;;;;;-3.48;64.53;100386.81;122487;1103;104718;-70
2021/01/16 04:34:30;;;;;;;;;;;;;;;-3.51;64.92;100387.80;122429;1107;104603;-70
2021/01/16 04:36:56;;;;;;;;;;;;;;;-3.54;64.87;100382.72;122514;1107;104616;-70
2021/01/16 04:39:22;;;;;;;;;;;;;;;-3.55;65.66;100381.84;122421;1103;106194;-69
2021/01/16 04:41:51;;;;;;;;;;;;;;;-3.57;64.78;100383.66;122446;1103;104597;-69
2021/01/16 04:44:20;;;;;;;;;;;;;;;-3.61;64.81;100371.66;122430;1107;104718;-69
2021/01/16 04:46:46;;;;;;;;;;;;;;;-3.61;64.99;100378.64;122430;1103;109260;-69
2021/01/16 04:49:11;;;;;;;;;;;;;;;-3.64;64.88;100371.77;122491;1103;104602;-70
2021/01/16 04:51:44;;;;;;;;;;;;;;;-3.64;65.05;100373.53;122505;1103;104626;-69
2021/01/16 04:54:13;;;;;;;;;;;;;;;-3.62;65.35;100377.80;122462;1107;104576;-69
2021/01/16 04:56:39;;;;;;;;;;;;;;;-3.64;64.93;100379.59;122434;1104;104612;-69
2021/01/16 04:59:05;;;;;;;;;;;;;;;-3.67;65.41;100381.50;122440;1107;104617;-69
2021/01/16 05:01:31;;;;;;;;;;;;;;;-3.66;65.34;100370.98;122561;1103;104821;-70
2021/01/16 05:03:57;;;;;;;;;;;;;;;-3.66;65.54;100376.20;122426;1103;104592;-69
2021/01/16 05:06:26;;;;;;;;;;;;;;;-3.68;65.54;100375.41;122445;1103;104634;-69
2021/01/16 05:08:56;;;;;;;;;;;;;;;-3.70;65.19;100374.62;122413;1107;104609;-70
2021/01/16 05:11:24;;;;;;;;;;;;;;;-3.69;65.02;100371.12;122406;1107;109104;-69
2021/01/16 05:14:09;;;;;;;;;;;;;;;-3.71;65.84;100372.94;122411;1107;106479;-70
2021/01/16 05:16:41;;;;;;;;;;;;;;;-3.73;65.66;100377.37;122468;1107;104599;-70
2021/01/16 05:19:09;;;;;;;;;;;;;;;-3.71;65.78;100366.85;122411;1107;105091;-70
2021/01/16 05:21:35;;;;;;;;;;;;;;;-3.74;65.69;100354.80;122453;1103;104603;-70
2021/01/16 05:24:04;;;;;;;;;;;;;;;-3.69;65.73;100354.63;122406;1104;104615;-70
2021/01/16 05:26:31;;;;;;;;;;;;;;;-3.69;65.86;100355.47;122473;1103;104608;-70
2021/01/16 05:28:59;;;;;;;;;;;;;;;-3.67;65.33;100360.63;122452;1107;104705;-69
2021/01/16 05:31:25;;;;;;;;;;;;;;;-3.64;65.48;100360.50;122450;1103;104599;-70
2021/01/16 05:33:50;;;;;;;;;;;;;;;-3.63;65.66;100355.23;122504;1104;104660;-70
2021/01/16 05:36:16;;;;;;;;;;;;;;;-3.61;66.20;100357.78;122432;1107;108332;-70
2021/01/16 05:38:43;;;;;;;;;;;;;;;-3.61;66.36;100358.63;122446;1103;104599;-70
2021/01/16 05:41:10;;;;;;;;;;;;;;;-3.61;66.42;100350.80;122543;1104;104584;-70
2021/01/16 05:43:37;;;;;;;;;;;;;;;-3.59;66.09;100348.14;122445;1103;104679;-71
2021/01/16 05:46:04;;;;;;;;;;;;;;;-3.57;65.81;100347.16;122518;1102;105085;-70
2021/01/16 05:48:30;;;;;;;;;;;;;;;-3.56;65.92;100348.00;122502;1107;104603;-71
2021/01/16 05:50:57;;;;;;;;;;;;;;;-3.58;66.12;100340.25;122557;1110;104568;-71
2021/01/16 05:53:26;;;;;;;;;;;;;;;-3.56;66.06;100338.43;122521;1103;104621;-70
2021/01/16 05:55:55;;;;;;;;;;;;;;;-3.55;66.49;100334.89;122546;1107;104583;-70
2021/01/16 05:58:21;;;;;;;;;;;;;;;-3.51;65.59;100334.78;122415;1108;109256;-70
2021/01/16 06:00:49;;;;;;;;;;;;;;;-3.48;65.52;100335.52;122431;1103;104685;-71
2021/01/16 06:03:16;;;;;;;;;;;;;;;-3.42;65.83;100329.20;122468;1107;104574;-70
2021/01/16 06:05:46;;;;;;;;;;;;;;;-3.39;65.75;100329.06;122451;1108;104642;-70
2021/01/16 06:08:12;;;;;;;;;;;;;;;-3.37;65.86;100327.23;122409;1103;109330;-69
2021/01/16 06:10:38;;;;;;;;;;;;;;;-3.38;65.74;100322.95;122411;1103;104682;-68
2021/01/16 06:13:14;;;;;;;;;;;;;;;-3.35;65.63;100325.41;122542;1103;104597;-71
2021/01/16 06:15:44;;;;;;;;;;;;;;;-3.31;66.53;100329.62;122488;1103;104655;-73
2021/01/16 06:18:23;;;;;;;;;;;;;;;-3.27;66.13;100325.09;122533;1103;104653;-73
2021/01/16 06:20:49;;;;;;;;;;;;;;;-3.20;65.98;100329.99;122507;1107;108469;-72
2021/01/16 06:23:16;;;;;;;;;;;;;;;-3.16;66.62;100330.72;122471;1111;104682;-71
2021/01/16 06:25:46;;;;;;;;;;;;;;;-3.12;65.94;100334.05;122521;1103;105050;-70
2021/01/16 06:28:12;;;;;;;;;;;;;;;-3.10;66.58;100333.06;122470;1103;104690;-69
2021/01/16 06:30:40;;;;;;;;;;;;;;;-3.06;65.91;100329.44;122506;1103;104696;-70
2021/01/16 06:33:19;;;;;;;;;;;;;;;-3.01;65.96;100337.07;122575;1103;104679;-70
2021/01/16 06:35:53;;;;;;;;;;;;;;;-3.00;66.65;100330.95;122451;1104;105031;-71
2021/01/16 06:38:29;;;;;;;;;;;;;;;-3.01;65.83;100326.62;122421;1104;104577;-70
2021/01/16 06:40:55;;;;;;;;;;;;;;;-3.00;65.32;100328.34;122506;1104;108345;-70
2021/01/16 06:43:21;;;;;;;;;;;;;;;-2.97;65.48;100315.13;122433;1104;106104;-70
2021/01/16 06:45:47;;;;;;;;;;;;;;;-2.96;66.79;100329.91;122511;1103;104593;-71
2021/01/16 06:48:13;;;;;;;;;;;;;;;-2.93;65.39;100331.52;122478;1103;104660;-71
2021/01/16 06:50:38;;;;;;;;;;;;;;;-2.88;65.29;100325.19;122456;1107;104655;-70
2021/01/16 06:53:04;;;;;;;;;;;;;;;-2.84;66.20;100321.53;122545;1103;104666;-71
2021/01/16 06:55:34;;;;;;;;;;;;;;;-2.76;66.53;100329.88;122453;1103;104784;-70
2021/01/16 06:58:18;;;;;;;;;;;;;;;-2.71;65.22;100323.59;122448;1103;106609;-70
2021/01/16 07:00:52;;;;;;;;;;;;;;;-2.67;66.13;100317.35;122444;1106;104676;-71
2021/01/16 07:03:18;;;;;;;;;;;;;;;-2.56;66.83;100320.31;122413;1104;104593;-68
2021/01/16 07:05:44;;;;;;;;;;;;;;;-2.50;65.86;100325.29;122444;1103;104759;-70
2021/01/16 07:08:11;;;;;;;;;;;;;;;-2.43;66.35;100326.69;122540;1103;104678;-69
2021/01/16 07:10:37;;;;;;;;;;;;;;;-2.38;66.69;100324.72;122441;1103;106580;-71
2021/01/16 07:13:04;;;;;;;;;;;;;;;-2.39;65.35;100322.17;122480;1103;104613;-69
2021/01/16 07:15:30;;;;;;;;;;;;;;;-2.35;65.39;100328.95;122481;1103;104619;-70
2021/01/16 07:17:59;;;;;;;;;;;;;;;-2.34;65.37;100319.38;122517;1107;104574;-70
2021/01/16 07:20:24;;;;;;;;;;;;;;;-2.34;65.31;100322.83;122539;1103;109265;-71
2021/01/16 07:22:51;;;;;;;;;;;;;;;-2.40;66.72;100329.17;122572;1103;104596;-69
2021/01/16 07:25:16;;;;;;;;;;;;;;;-2.43;66.81;100321.45;122542;1103;104650;-72
2021/01/16 07:27:42;;;;;;;;;;;;;;;-2.38;66.56;100316.89;122466;1107;104593;-70
2021/01/16 07:30:12;;;;;;;;;;;;;;;-2.34;66.62;100316.77;122526;1103;104570;-70
2021/01/16 07:32:40;;;;;;;;;;;;;;;-2.32;66.28;100320.99;122565;1107;104657;-72
2021/01/16 07:35:09;;;;;;;;;;;;;;;-2.28;66.53;100308.63;122578;1103;104571;-72
2021/01/16 07:37:35;;;;;;;;;;;;;;;-2.29;66.84;100312.15;122581;1107;104644;-72
2021/01/16 07:40:02;;;;;;;;;;;;;;;-2.36;65.35;100311.59;122546;1103;104603;-74
2021/01/16 07:42:30;;;;;;;;;;;;;;;-2.40;65.40;100318.72;122803;1103;104609;-72
2021/01/16 07:45:22;;;;;;;;;;;;;;;-2.41;66.75;100303.11;122573;1104;105111;-73
2021/01/16 07:47:50;;;;;;;;;;;;;;;-2.45;66.80;100315.45;122624;1103;104603;-74
2021/01/16 07:50:20;;;;;;;;;;;;;;;-2.40;65.54;100310.88;122655;1103;104603;-77
2021/01/16 07:52:52;;;;;;;;;;;;;;;-2.29;66.51;100309.54;122576;1103;108340;-73
2021/01/16 07:55:18;;;;;;;;;;;;;;;-2.21;66.99;100317.90;122626;1103;105628;-72
2021/01/16 07:57:47;;;;;;;;;;;;;;;-2.17;66.94;100307.22;122598;1108;104702;-72
2021/01/16 08:00:15;;;;;;;;;;;;;;;-2.08;66.85;100307.70;122600;1103;104603;-76
2021/01/16 08:02:59;;;;;;;;;;;;;;;-1.97;66.33;100308.05;122542;1103;104676;-70
2021/01/16 08:05:26;;;;;;;;;;;;;;;-1.86;66.08;100307.56;122538;1103;105645;-73
2021/01/16 08:08:04;;;;;;;;;;;;;;;-1.86;65.66;100304.95;122640;1103;104696;-72
2021/01/16 08:10:29;;;;;;;;;;;;;;;-1.84;65.38;100300.48;122633;1103;104977;-71
2021/01/16 08:13:00;;;;;;;;;;;;;;;-1.79;65.41;100296.73;122398;1103;104711;-72
2021/01/16 08:15:28;;;;;;;;;;;;;;;-1.71;66.30;100293.75;122563;1107;105657;-73
2021/01/16 08:17:54;;;;;;;;;;;;;;;-1.61;65.33;100294.16;122609;1110;104675;-73
2021/01/16 08:20:27;;;;;;;;;;;;;;;-1.54;66.02;100292.07;122596;1103;104647;-74
2021/01/16 08:22:55;;;;;;;;;;;;;;;-1.42;65.38;100287.09;122568;1103;108334;-75
2021/01/16 08:25:22;;;;;;;;;;;;;;;-1.36;64.91;100283.32;122563;1103;105588;-75
2021/01/16 08:27:50;;;;;;;;;;;;;;;-1.37;65.15;100286.84;122613;1103;104666;-74
2021/01/16 08:30:16;;;;;;;;;;;;;;;-1.35;66.28;100284.16;122769;1103;104661;-73
2021/01/16 08:32:53;;;;;;;;;;;;;;;-1.30;65.29;100272.54;122603;1103;105081;-73
2021/01/16 08:35:48;;;;;;;;;;;;;;;-1.27;65.49;100269.78;122556;1103;105644;-76
2021/01/16 08:38:17;;;;;;;;;;;;;;;-1.13;64.94;100270.86;122573;1104;104647;-72
2021/01/16 08:40:53;;;;;;;;;;;;;;;-1.06;66.04;100265.22;122530;1110;104597;-73
2021/01/16 08:43:28;;;;;;;;;;;;;;;-0.98;65.67;100256.97;122523;1103;108424;-72
2021/01/16 08:46:14;;;;;;;;;;;;;;;-0.91;65.44;100250.47;122502;1105;105677;-75
2021/01/16 08:48:41;;;;;;;;;;;;;;;-0.87;66.09;100238.06;122577;1103;104632;-77
2021/01/16 08:51:29;;;;;;;;;;;;;;;-0.83;65.94;100240.45;122568;1103;104615;-72
2021/01/16 08:54:13;;;;;;;;;;;;;;;-0.84;65.48;100243.15;122537;1103;108395;-72
2021/01/16 08:56:40;;;;;;;;;;;;;;;-0.88;65.98;100239.84;122587;1103;105625;-71
2021/01/16 08:59:18;;;;;;;;;;;;;;;-0.86;65.89;100235.36;122636;1103;104599;-72
2021/01/16 09:01:47;;;;;;;;;;;;;;;-0.88;65.40;100239.84;122564;1103;105028;-71
2021/01/16 09:04:17;;;;;;;;;;;;;;;-0.95;64.82;100230.61;122564;1107;108426;-76
2021/01/16 09:06:42;;;;;;;;;;;;;;;-1.00;66.14;100230.02;122598;1103;105703;-76
2021/01/16 09:09:08;;;;;;;;;;;;;;;-1.02;65.72;100229.22;122637;1103;104599;-77
2021/01/16 09:11:33;;;;;;;;;;;;;;;-1.06;66.20;100219.84;123274;1102;104696;-77
2021/01/16 09:14:01;;;;;;;;;;;;;;;-1.05;66.13;100225.00;122626;1107;104708;-78
2021/01/16 09:16:31;;;;;;;;;;;;;;;-1.08;64.93;100219.94;122585;1103;104695;-75
2021/01/16 09:18:57;;;;;;;;;;;;;;;-1.09;65.80;100217.39;122522;1106;105640;-77
2021/01/16 09:21:24;;;;;;;;;;;;;;;-1.13;66.07;100214.09;122588;1103;105111;-76
2021/01/16 09:23:50;;;;;;;;;;;;;;;-1.13;66.44;100216.70;122644;1110;104596;-76
2021/01/16 09:26:20;;;;;;;;;;;;;;;-1.12;66.20;100212.30;122530;1106;104698;-76
2021/01/16 09:28:55;;;;;;;;;;;;;;;-1.13;66.18;100208.84;122502;1103;108303;-76
2021/01/16 09:31:22;;;;;;;;;;;;;;;-1.05;66.37;100203.22;122559;1103;105669;-76
2021/01/16 09:33:49;;;;;;;;;;;;;;;-0.95;66.43;100199.17;122659;1101;104618;-76
2021/01/16 09:36:33;;;;;;;;;;;;;;;-0.85;65.51;100195.16;122637;1103;104682;-77
2021/01/16 09:38:59;;;;;;;;;;;;;;;-0.81;65.88;100191.45;122532;1103;108410;-74
2021/01/16 09:41:31;;;;;;;;;;;;;;;-0.77;65.67;100191.27;122639;1102;104578;-75
2021/01/16 09:43:56;;;;;;;;;;;;;;;-0.70;66.32;100177.75;122579;1103;104596;-74
2021/01/16 09:46:31;;;;;;;;;;;;;;;-0.65;65.57;100177.52;122593;1103;104696;-77
2021/01/16 09:48:57;;;;;;;;;;;;;;;-0.60;65.45;100175.47;122510;1103;108330;-77
2021/01/16 09:51:28;;;;;;;;;;;;;;;-0.53;65.64;100158.48;122577;1103;104621;-75
2021/01/16 09:54:06;;;;;;;;;;;;;;;-0.52;65.36;100157.57;122609;1103;104718;-75
2021/01/16 09:56:43;;;;;;;;;;;;;;;-0.52;66.15;100159.32;122548;1103;104736;-75
2021/01/16 09:59:11;;;;;;;;;;;;;;;-0.53;66.44;100141.92;122639;1105;107961;-76
2021/01/16 10:01:36;;;;;;;;;;;;;;;-0.52;66.14;100149.70;122557;1103;105658;-76
2021/01/16 10:04:20;;;;;;;;;;;;;;;-0.55;66.13;100134.14;122542;1103;104615;-75
2021/01/16 10:06:46;;;;;;;;;;;;;;;-0.52;66.25;100133.11;122673;1104;104958;-75
2021/01/16 10:09:21;;;;;;;;;;;;;;;-0.51;66.14;100125.17;122650;1103;104579;-76
2021/01/16 10:11:47;;;;;;;;;;;;;;;-0.53;65.97;100119.17;122550;1103;105614;-75
2021/01/16 10:14:20;;;;;;;;;;;;;;;-0.48;66.69;100119.77;122602;1103;104590;-75
2021/01/16 10:16:46;;;;;;;;;;;;;;;-0.44;67.30;100121.28;122591;1103;104571;-76
2021/01/16 10:19:12;;;;;;;;;;;;;;;-0.43;66.62;100117.72;122547;1103;104804;-75
2021/01/16 10:21:58;;;;;;;;;;;;;;;-0.31;66.88;100107.47;122722;1103;105036;-75
2021/01/16 10:24:24;;;;;;;;;;;;;;;-0.22;67.06;100107.78;122572;1103;105694;-75
2021/01/16 10:26:51;;;;;;;;;;;;;;;-0.21;66.81;100100.79;122581;1103;104581;-77
2021/01/16 10:29:18;;;;;;;;;;;;;;;-0.22;66.94;100099.09;122540;1103;104581;-76
2021/01/16 10:31:43;;;;;;;;;;;;;;;-0.19;66.87;100093.67;122615;1106;104600;-75
2021/01/16 10:34:12;;;;;;;;;;;;;;;-0.21;66.85;100092.92;122525;1106;108304;-75
2021/01/16 10:36:39;;;;;;;;;;;;;;;-0.17;66.59;100091.81;122583;1103;105610;-79
2021/01/16 10:39:11;;;;;;;;;;;;;;;-0.16;67.02;100082.99;122690;1101;105108;-73
2021/01/16 10:41:38;;;;;;;;;;;;;;;-0.11;66.79;100074.87;122571;1103;104929;-76
2021/01/16 10:44:05;;;;;;;;;;;;;;;0.02;66.87;100082.85;122549;1106;104603;-78
2021/01/16 10:46:47;;;;;;;;;;;;;;;0.07;66.93;100062.45;122569;1103;104568;-71
2021/01/16 10:49:19;;;;;;;;;;;;;;;0.08;67.14;100064.98;122586;1103;104599;-78
2021/01/16 10:51:56;;;;;;;;;;;;;;;0.11;66.55;100058.70;122560;1103;104639;-73
2021/01/16 10:54:22;;;;;;;;;;;;;;;0.04;66.44;100058.23;122583;1103;108397;-75
2021/01/16 10:57:04;;;;;;;;;;;;;;;0.02;66.45;100051.38;122547;1104;104597;-68
2021/01/16 10:59:31;;;;;;;;;;;;;;;-0.08;66.37;100051.94;122428;1103;104597;-72
2021/01/16 11:01:58;;;;;;;;;;;;;;;-0.10;67.18;100043.29;122421;1103;104718;-69
2021/01/16 11:04:24;;;;;;;;;;;;;;;-0.10;66.68;100039.83;122509;1103;104638;-68
2021/01/16 11:06:55;;;;;;;;;;;;;;;-0.06;67.00;100036.95;122536;1103;104573;-69
2021/01/16 11:09:33;;;;;;;;;;;;;;;-0.01;66.93;100034.05;122481;1103;104599;-68
2021/01/16 11:11:59;;;;;;;;;;;;;;;-0.06;67.16;100030.84;122469;1107;104725;-74
2021/01/16 11:14:38;;;;;;;;;;;;;;;-0.14;67.63;100027.84;122556;1103;104676;-72
2021/01/16 11:17:05;;;;;;;;;;;;;;;-0.24;68.04;100035.41;122545;1103;105636;-72
2021/01/16 12:27:59;;;;;;;;;;;;;;;;;;4383;1109;39103;-52
2021/01/16 12:28:05;;;;;;;;;;;;;;;;;;4348;1103;63788;-51
2021/01/16 12:28:10;;;;;;;;;;;;;;;;;;4256;1103;68832;-51
2021/01/16 12:28:15;;;;;;;;;;;;;;;;;;4260;1107;65307;-52
2021/01/16 12:28:20;;;;;;;;;;;;;;;;;;4095;1107;94259;-54
2021/01/16 12:28:25;;;;;;;;;;;;;;;;;;4285;1106;62903;-52
2021/01/16 12:28:31;;;;;;;;;;;;;;;;;;4238;1107;71284;-51
2021/01/16 12:28:36;;;;;;;;;;;;;;;;;;4184;1108;65629;-51
2021/01/16 12:28:41;;;;;;;;;;;;;;;;;;4208;1110;53601;-53
2021/01/16 12:28:46;;;;;;;;;;;;;;;;;;4125;1109;62720;-53
2021/01/16 12:28:52;;;;;;;;;;;;;;;;;;4176;1104;70073;-52
2021/01/16 12:28:57;;;;;;;;;;;;;;;;;;4217;1110;66931;-51
2021/01/16 12:29:02;;;;;;;;;;;;;;;;;;4203;1106;53691;-52
2021/01/16 12:29:07;;;;;;;;;;;;;;;;;;4246;1110;63517;-51
2021/01/16 12:29:13;;;;;;;;;;;;;;;;;;4242;1106;71143;-50
2021/01/16 12:29:18;;;;;;;;;;;;;;;;;;4247;1110;66445;-52
2021/01/16 12:29:23;;;;;;;;;;;;;;;;;;4253;1106;53634;-51
2021/01/16 12:29:28;;;;;;;;;;;;;;;;;;4244;1110;62645;-50
2021/01/16 12:29:33;;;;;;;;;;;;;;;;;;4234;1110;70239;-50
2021/01/16 12:29:39;;;;;;;;;;;;;;;;;;4246;1113;66413;-49
2021/01/16 12:29:46;;;;;;;;;;;;;;;;;;4252;1111;53775;-50
2021/01/16 12:29:52;;;;;;;;;;;;;;;;;;4241;1111;62583;-50
2021/01/16 12:29:57;;;;;;;;;;;;;;;;;;4243;1111;69836;-54
2021/01/16 12:30:02;;;;;;;;;;;;;;;;;;4243;1106;66379;-51
2021/01/16 12:30:07;;;;;;;;;;;;;;;;;;4249;1110;53509;-51
2021/01/16 12:30:12;;;;;;;;;;;;;;;;;;4247;1110;62716;-50
2021/01/16 12:30:17;;;;;;;;;;;;;;;;;;4239;1111;70279;-51
2021/01/16 12:30:22;;;;;;;;;;;;;;;;;;4247;1108;67969;-51
2021/01/16 12:30:27;;;;;;;;;;;;;;;;;;4255;1106;53520;-53
2021/01/16 12:30:33;;;;;;;;;;;;;;;;;;4242;1106;62709;-53
2021/01/16 12:30:38;;;;;;;;;;;;;;;;;;4240;1106;69791;-50
2021/01/16 12:30:45;;;;;;;;;;;;;;;;;;4244;1110;66784;-51
2021/01/16 12:30:51;;;;;;;;;;;;;;;;;;4261;1106;53763;-52
2021/01/16 12:30:56;;;;;;;;;;;;;;;;;;4249;1106;63404;-51
2021/01/16 12:31:03;;;;;;;;;;;;;;;;;;4241;1110;69613;-51
2021/01/16 12:31:08;;;;;;;;;;;;;;;;;;4250;1106;65975;-52
2021/01/16 12:31:13;;;;;;;;;;;;;;;;;;4256;1109;53835;-51
2021/01/16 12:31:18;;;;;;;;;;;;;;;;;;4253;1109;62751;-55
2021/01/16 12:31:23;;;;;;;;;;;;;;;;;;4239;1106;71261;-56